sensor_id;sensor_type;location;lat;lon;timestamp;temperature;humidity
69225;DHT22;56333;51.306;17.056;2024-01-30T00:01:43;3.81;65.25
69225;DHT22;56333;51.306;17.056;2024-01-30T00:03:07;3.79;65.28
69225;DHT22;56333;51.306;17.056;2024-01-30T00:04:31;3.79;65.30
69225;DHT22;56333;51.306;17.056;2024-01-30T00:05:55;3.77;65.40
69225;DHT22;56333;51.306;17.056;2024-01-30T00:07:19;3.76;65.47
69225;DHT22;56333;51.306;17.056;2024-01-30T00:08:44;3.74;65.60
69225;DHT22;56333;51.306;17.056;2024-01-30T00:10:10;3.76;65.57
69225;DHT22;56333;51.306;17.056;2024-01-30T00:11:34;3.78;65.40
69225;DHT22;56333;51.306;17.056;2024-01-30T00:12:59;3.79;65.50
69225;DHT22;56333;51.306;17.056;2024-01-30T00:14:24;3.79;65.28
69225;DHT22;56333;51.306;17.056;2024-01-30T00:15:48;3.77;65.30
69225;DHT22;56333;51.306;17.056;2024-01-30T00:17:13;3.78;65.30
69225;DHT22;56333;51.306;17.056;2024-01-30T00:18:37;3.80;65.30
69225;DHT22;56333;51.306;17.056;2024-01-30T00:20:02;3.79;65.13
69225;DHT22;56333;51.306;17.056;2024-01-30T00:21:30;3.77;65.28
69225;DHT22;56333;51.306;17.056;2024-01-30T00:22:55;3.78;65.22
69225;DHT22;56333;51.306;17.056;2024-01-30T00:24:19;3.77;65.22
69225;DHT22;56333;51.306;17.056;2024-01-30T00:25:42;3.73;65.47
69225;DHT22;56333;51.306;17.056;2024-01-30T00:27:08;3.74;65.57
69225;DHT22;56333;51.306;17.056;2024-01-30T00:28:32;3.71;65.65
69225;DHT22;56333;51.306;17.056;2024-01-30T00:29:56;3.72;65.70
69225;DHT22;56333;51.306;17.056;2024-01-30T00:31:20;3.69;65.88
69225;DHT22;56333;51.306;17.056;2024-01-30T00:32:44;3.71;65.78
69225;DHT22;56333;51.306;17.056;2024-01-30T00:34:08;3.70;65.82
69225;DHT22;56333;51.306;17.056;2024-01-30T00:35:32;3.69;65.85
69225;DHT22;56333;51.306;17.056;2024-01-30T00:36:57;3.66;65.97
69225;DHT22;56333;51.306;17.056;2024-01-30T00:38:21;3.66;65.90
69225;DHT22;56333;51.306;17.056;2024-01-30T00:39:45;3.65;65.97
69225;DHT22;56333;51.306;17.056;2024-01-30T00:41:09;3.64;66.03
69225;DHT22;56333;51.306;17.056;2024-01-30T00:42:33;3.64;66.10
69225;DHT22;56333;51.306;17.056;2024-01-30T00:43:58;3.61;66.00
69225;DHT22;56333;51.306;17.056;2024-01-30T00:45:22;3.61;66.22
69225;DHT22;56333;51.306;17.056;2024-01-30T00:46:46;3.60;66.32
69225;DHT22;56333;51.306;17.056;2024-01-30T00:48:10;3.56;66.45
69225;DHT22;56333;51.306;17.056;2024-01-30T00:49:34;3.57;66.45
69225;DHT22;56333;51.306;17.056;2024-01-30T00:50:58;3.56;66.32
69225;DHT22;56333;51.306;17.056;2024-01-30T00:52:22;3.58;66.25
69225;DHT22;56333;51.306;17.056;2024-01-30T00:53:47;3.59;66.22
69225;DHT22;56333;51.306;17.056;2024-01-30T00:55:11;3.59;66.13
69225;DHT22;56333;51.306;17.056;2024-01-30T00:56:35;3.56;66.18
69225;DHT22;56333;51.306;17.056;2024-01-30T00:58:00;3.57;66.00
69225;DHT22;56333;51.306;17.056;2024-01-30T00:59:25;3.54;66.25
69225;DHT22;56333;51.306;17.056;2024-01-30T01:00:49;3.53;66.22
69225;DHT22;56333;51.306;17.056;2024-01-30T01:02:14;3.55;66.10
69225;DHT22;56333;51.306;17.056;2024-01-30T01:03:39;3.57;66.00
69225;DHT22;56333;51.306;17.056;2024-01-30T01:05:06;3.55;65.93
69225;DHT22;56333;51.306;17.056;2024-01-30T01:06:30;3.57;65.93
69225;DHT22;56333;51.306;17.056;2024-01-30T01:07:54;3.56;65.95
69225;DHT22;56333;51.306;17.056;2024-01-30T01:09:19;3.56;65.82
69225;DHT22;56333;51.306;17.056;2024-01-30T01:10:43;3.60;65.70
69225;DHT22;56333;51.306;17.056;2024-01-30T01:12:07;3.62;65.50
69225;DHT22;56333;51.306;17.056;2024-01-30T01:13:31;3.66;65.35
69225;DHT22;56333;51.306;17.056;2024-01-30T01:14:55;3.66;65.30
69225;DHT22;56333;51.306;17.056;2024-01-30T01:16:20;3.64;65.43
69225;DHT22;56333;51.306;17.056;2024-01-30T01:17:44;3.64;65.53
69225;DHT22;56333;51.306;17.056;2024-01-30T01:19:08;3.62;65.53
69225;DHT22;56333;51.306;17.056;2024-01-30T01:20:32;3.63;65.38
69225;DHT22;56333;51.306;17.056;2024-01-30T01:21:56;3.65;65.38
69225;DHT22;56333;51.306;17.056;2024-01-30T01:23:20;3.66;65.25
69225;DHT22;56333;51.306;17.056;2024-01-30T01:24:44;3.66;65.35
69225;DHT22;56333;51.306;17.056;2024-01-30T01:26:08;3.64;65.38
69225;DHT22;56333;51.306;17.056;2024-01-30T01:27:32;3.64;65.28
69225;DHT22;56333;51.306;17.056;2024-01-30T01:29:02;3.67;65.20
69225;DHT22;56333;51.306;17.056;2024-01-30T01:30:31;3.68;65.10
69225;DHT22;56333;51.306;17.056;2024-01-30T01:31:55;3.72;65.10
69225;DHT22;56333;51.306;17.056;2024-01-30T01:33:20;3.73;65.13
69225;DHT22;56333;51.306;17.056;2024-01-30T01:34:44;3.74;65.32
69225;DHT22;56333;51.306;17.056;2024-01-30T01:36:08;3.74;65.22
69225;DHT22;56333;51.306;17.056;2024-01-30T01:37:33;3.71;65.20
69225;DHT22;56333;51.306;17.056;2024-01-30T01:38:57;3.71;65.13
69225;DHT22;56333;51.306;17.056;2024-01-30T01:40:22;3.66;65.38
69225;DHT22;56333;51.306;17.056;2024-01-30T01:41:48;3.69;65.35
69225;DHT22;56333;51.306;17.056;2024-01-30T01:43:12;3.69;65.28
69225;DHT22;56333;51.306;17.056;2024-01-30T01:44:36;3.69;65.35
69225;DHT22;56333;51.306;17.056;2024-01-30T01:46:01;3.65;65.50
69225;DHT22;56333;51.306;17.056;2024-01-30T01:47:26;3.63;65.60
69225;DHT22;56333;51.306;17.056;2024-01-30T01:48:51;3.60;65.80
69225;DHT22;56333;51.306;17.056;2024-01-30T01:50:16;3.58;65.82
69225;DHT22;56333;51.306;17.056;2024-01-30T01:51:41;3.60;65.88
69225;DHT22;56333;51.306;17.056;2024-01-30T01:53:07;3.61;65.63
69225;DHT22;56333;51.306;17.056;2024-01-30T01:54:31;3.64;65.65
69225;DHT22;56333;51.306;17.056;2024-01-30T01:55:56;3.65;65.32
69225;DHT22;56333;51.306;17.056;2024-01-30T01:57:20;3.65;65.57
69225;DHT22;56333;51.306;17.056;2024-01-30T01:58:45;3.66;65.30
69225;DHT22;56333;51.306;17.056;2024-01-30T02:00:12;3.65;65.25
69225;DHT22;56333;51.306;17.056;2024-01-30T02:01:38;3.65;65.35
69225;DHT22;56333;51.306;17.056;2024-01-30T02:03:04;3.63;65.38
69225;DHT22;56333;51.306;17.056;2024-01-30T02:04:29;3.67;65.35
69225;DHT22;56333;51.306;17.056;2024-01-30T02:05:54;3.67;65.38
69225;DHT22;56333;51.306;17.056;2024-01-30T02:07:19;3.69;65.30
69225;DHT22;56333;51.306;17.056;2024-01-30T02:08:44;3.70;65.32
69225;DHT22;56333;51.306;17.056;2024-01-30T02:10:09;3.70;65.20
69225;DHT22;56333;51.306;17.056;2024-01-30T02:11:33;3.70;65.28
69225;DHT22;56333;51.306;17.056;2024-01-30T02:12:58;3.69;65.30
69225;DHT22;56333;51.306;17.056;2024-01-30T02:14:23;3.68;65.32
69225;DHT22;56333;51.306;17.056;2024-01-30T02:15:50;3.65;65.35
69225;DHT22;56333;51.306;17.056;2024-01-30T02:17:15;3.69;65.40
69225;DHT22;56333;51.306;17.056;2024-01-30T02:18:39;3.69;65.47
69225;DHT22;56333;51.306;17.056;2024-01-30T02:20:09;3.70;65.38
69225;DHT22;56333;51.306;17.056;2024-01-30T02:21:34;3.67;65.45
69225;DHT22;56333;51.306;17.056;2024-01-30T02:22:59;3.70;65.38
69225;DHT22;56333;51.306;17.056;2024-01-30T02:24:24;3.68;65.50
69225;DHT22;56333;51.306;17.056;2024-01-30T02:25:48;3.69;65.47
69225;DHT22;56333;51.306;17.056;2024-01-30T02:27:15;3.69;65.28
69225;DHT22;56333;51.306;17.056;2024-01-30T02:28:39;3.70;65.40
69225;DHT22;56333;51.306;17.056;2024-01-30T02:30:06;3.70;65.30
69225;DHT22;56333;51.306;17.056;2024-01-30T02:31:32;3.69;65.25
69225;DHT22;56333;51.306;17.056;2024-01-30T02:32:56;3.70;65.32
69225;DHT22;56333;51.306;17.056;2024-01-30T02:34:20;3.71;65.35
69225;DHT22;56333;51.306;17.056;2024-01-30T02:35:45;3.69;65.30
69225;DHT22;56333;51.306;17.056;2024-01-30T02:37:09;3.67;65.38
69225;DHT22;56333;51.306;17.056;2024-01-30T02:38:33;3.65;65.43
69225;DHT22;56333;51.306;17.056;2024-01-30T02:39:58;3.69;65.55
69225;DHT22;56333;51.306;17.056;2024-01-30T02:41:22;3.70;65.28
69225;DHT22;56333;51.306;17.056;2024-01-30T02:42:46;3.73;65.25
69225;DHT22;56333;51.306;17.056;2024-01-30T02:44:10;3.75;65.25
69225;DHT22;56333;51.306;17.056;2024-01-30T02:45:34;3.74;65.30
69225;DHT22;56333;51.306;17.056;2024-01-30T02:46:59;3.75;65.28
69225;DHT22;56333;51.306;17.056;2024-01-30T02:48:23;3.73;65.38
69225;DHT22;56333;51.306;17.056;2024-01-30T02:49:47;3.73;65.35
69225;DHT22;56333;51.306;17.056;2024-01-30T02:51:11;3.72;65.30
69225;DHT22;56333;51.306;17.056;2024-01-30T02:52:35;3.71;65.45
69225;DHT22;56333;51.306;17.056;2024-01-30T02:53:59;3.71;65.32
69225;DHT22;56333;51.306;17.056;2024-01-30T02:55:23;3.71;65.32
69225;DHT22;56333;51.306;17.056;2024-01-30T02:56:47;3.72;65.25
69225;DHT22;56333;51.306;17.056;2024-01-30T02:58:12;3.70;65.50
69225;DHT22;56333;51.306;17.056;2024-01-30T02:59:36;3.70;65.45
69225;DHT22;56333;51.306;17.056;2024-01-30T03:01:00;3.71;65.60
69225;DHT22;56333;51.306;17.056;2024-01-30T03:02:24;3.72;65.55
69225;DHT22;56333;51.306;17.056;2024-01-30T03:03:49;3.74;65.53
69225;DHT22;56333;51.306;17.056;2024-01-30T03:05:13;3.75;65.50
69225;DHT22;56333;51.306;17.056;2024-01-30T03:06:37;3.75;65.32
69225;DHT22;56333;51.306;17.056;2024-01-30T03:08:01;3.75;65.30
69225;DHT22;56333;51.306;17.056;2024-01-30T03:09:27;3.78;65.45
69225;DHT22;56333;51.306;17.056;2024-01-30T03:10:51;3.76;65.40
69225;DHT22;56333;51.306;17.056;2024-01-30T03:12:15;3.76;65.40
69225;DHT22;56333;51.306;17.056;2024-01-30T03:13:39;3.75;65.40
69225;DHT22;56333;51.306;17.056;2024-01-30T03:15:05;3.75;65.50
69225;DHT22;56333;51.306;17.056;2024-01-30T03:16:31;3.75;65.45
69225;DHT22;56333;51.306;17.056;2024-01-30T03:17:55;3.74;65.50
69225;DHT22;56333;51.306;17.056;2024-01-30T03:19:19;3.70;65.63
69225;DHT22;56333;51.306;17.056;2024-01-30T03:20:44;3.67;65.75
69225;DHT22;56333;51.306;17.056;2024-01-30T03:22:08;3.69;65.82
69225;DHT22;56333;51.306;17.056;2024-01-30T03:23:32;3.69;65.75
69225;DHT22;56333;51.306;17.056;2024-01-30T03:24:55;3.70;65.78
69225;DHT22;56333;51.306;17.056;2024-01-30T03:26:20;3.72;65.75
69225;DHT22;56333;51.306;17.056;2024-01-30T03:27:44;3.72;65.68
69225;DHT22;56333;51.306;17.056;2024-01-30T03:29:08;3.69;65.82
69225;DHT22;56333;51.306;17.056;2024-01-30T03:30:33;3.68;65.80
69225;DHT22;56333;51.306;17.056;2024-01-30T03:31:57;3.64;65.93
69225;DHT22;56333;51.306;17.056;2024-01-30T03:33:22;3.61;66.13
69225;DHT22;56333;51.306;17.056;2024-01-30T03:34:46;3.57;66.13
69225;DHT22;56333;51.306;17.056;2024-01-30T03:36:11;3.53;66.30
69225;DHT22;56333;51.306;17.056;2024-01-30T03:37:35;3.46;66.30
69225;DHT22;56333;51.306;17.056;2024-01-30T03:38:59;3.43;66.80
69225;DHT22;56333;51.306;17.056;2024-01-30T03:40:24;3.39;66.93
69225;DHT22;56333;51.306;17.056;2024-01-30T03:41:48;3.34;67.22
69225;DHT22;56333;51.306;17.056;2024-01-30T03:43:12;3.27;67.55
69225;DHT22;56333;51.306;17.056;2024-01-30T03:44:36;3.24;67.68
69225;DHT22;56333;51.306;17.056;2024-01-30T03:46:01;3.20;68.15
69225;DHT22;56333;51.306;17.056;2024-01-30T03:47:26;3.17;68.05
69225;DHT22;56333;51.306;17.056;2024-01-30T03:48:50;3.12;68.32
69225;DHT22;56333;51.306;17.056;2024-01-30T03:50:14;3.04;68.63
69225;DHT22;56333;51.306;17.056;2024-01-30T03:51:38;3.00;68.75
69225;DHT22;56333;51.306;17.056;2024-01-30T03:53:03;2.96;68.82
69225;DHT22;56333;51.306;17.056;2024-01-30T03:54:27;2.93;68.70
69225;DHT22;56333;51.306;17.056;2024-01-30T03:55:51;2.88;69.00
69225;DHT22;56333;51.306;17.056;2024-01-30T03:57:15;2.86;69.05
69225;DHT22;56333;51.306;17.056;2024-01-30T03:58:40;2.81;69.32
69225;DHT22;56333;51.306;17.056;2024-01-30T04:00:07;2.73;69.80
69225;DHT22;56333;51.306;17.056;2024-01-30T04:01:36;2.70;69.80
69225;DHT22;56333;51.306;17.056;2024-01-30T04:03:00;2.70;69.75
69225;DHT22;56333;51.306;17.056;2024-01-30T04:04:24;2.64;70.00
69225;DHT22;56333;51.306;17.056;2024-01-30T04:05:48;2.64;70.13
69225;DHT22;56333;51.306;17.056;2024-01-30T04:07:13;2.62;70.20
69225;DHT22;56333;51.306;17.056;2024-01-30T04:08:38;2.60;70.40
69225;DHT22;56333;51.306;17.056;2024-01-30T04:10:02;2.59;70.30
69225;DHT22;56333;51.306;17.056;2024-01-30T04:11:28;2.56;70.53
69225;DHT22;56333;51.306;17.056;2024-01-30T04:12:52;2.54;70.75
69225;DHT22;56333;51.306;17.056;2024-01-30T04:14:16;2.53;70.75
69225;DHT22;56333;51.306;17.056;2024-01-30T04:15:41;2.54;70.85
69225;DHT22;56333;51.306;17.056;2024-01-30T04:17:05;2.55;70.75
69225;DHT22;56333;51.306;17.056;2024-01-30T04:18:29;2.54;70.78
69225;DHT22;56333;51.306;17.056;2024-01-30T04:19:54;2.55;70.88
69225;DHT22;56333;51.306;17.056;2024-01-30T04:21:18;2.54;70.63
69225;DHT22;56333;51.306;17.056;2024-01-30T04:22:44;2.52;70.65
69225;DHT22;56333;51.306;17.056;2024-01-30T04:24:09;2.53;70.55
69225;DHT22;56333;51.306;17.056;2024-01-30T04:25:36;2.52;70.45
69225;DHT22;56333;51.306;17.056;2024-01-30T04:27:00;2.54;70.57
69225;DHT22;56333;51.306;17.056;2024-01-30T04:28:25;2.54;70.57
69225;DHT22;56333;51.306;17.056;2024-01-30T04:29:49;2.55;70.63
69225;DHT22;56333;51.306;17.056;2024-01-30T04:31:13;2.55;70.70
69225;DHT22;56333;51.306;17.056;2024-01-30T04:32:37;2.54;70.70
69225;DHT22;56333;51.306;17.056;2024-01-30T04:34:01;2.57;70.55
69225;DHT22;56333;51.306;17.056;2024-01-30T04:35:25;2.58;70.43
69225;DHT22;56333;51.306;17.056;2024-01-30T04:36:49;2.57;70.38
69225;DHT22;56333;51.306;17.056;2024-01-30T04:38:14;2.54;70.30
69225;DHT22;56333;51.306;17.056;2024-01-30T04:39:38;2.52;70.68
69225;DHT22;56333;51.306;17.056;2024-01-30T04:41:03;2.52;70.63
69225;DHT22;56333;51.306;17.056;2024-01-30T04:42:27;2.48;70.75
69225;DHT22;56333;51.306;17.056;2024-01-30T04:43:51;2.50;70.85
69225;DHT22;56333;51.306;17.056;2024-01-30T04:45:15;2.50;70.97
69225;DHT22;56333;51.306;17.056;2024-01-30T04:46:40;2.49;70.88
69225;DHT22;56333;51.306;17.056;2024-01-30T04:48:06;2.49;70.95
69225;DHT22;56333;51.306;17.056;2024-01-30T04:49:30;2.47;70.72
69225;DHT22;56333;51.306;17.056;2024-01-30T04:50:54;2.46;70.68
69225;DHT22;56333;51.306;17.056;2024-01-30T04:52:18;2.50;70.63
69225;DHT22;56333;51.306;17.056;2024-01-30T04:53:43;2.50;70.82
69225;DHT22;56333;51.306;17.056;2024-01-30T04:55:08;2.47;70.55
69225;DHT22;56333;51.306;17.056;2024-01-30T04:56:32;2.45;70.80
69225;DHT22;56333;51.306;17.056;2024-01-30T04:57:57;2.45;70.90
69225;DHT22;56333;51.306;17.056;2024-01-30T04:59:21;2.40;71.10
69225;DHT22;56333;51.306;17.056;2024-01-30T05:00:46;2.37;71.10
69225;DHT22;56333;51.306;17.056;2024-01-30T05:02:13;2.38;71.47
69225;DHT22;56333;51.306;17.056;2024-01-30T05:03:39;2.37;71.57
69225;DHT22;56333;51.306;17.056;2024-01-30T05:05:05;2.38;71.53
69225;DHT22;56333;51.306;17.056;2024-01-30T05:06:30;2.35;71.55
69225;DHT22;56333;51.306;17.056;2024-01-30T05:07:54;2.31;71.85
69225;DHT22;56333;51.306;17.056;2024-01-30T05:09:18;2.34;71.70
69225;DHT22;56333;51.306;17.056;2024-01-30T05:10:42;2.35;71.60
69225;DHT22;56333;51.306;17.056;2024-01-30T05:12:07;2.33;71.78
69225;DHT22;56333;51.306;17.056;2024-01-30T05:13:31;2.31;71.78
69225;DHT22;56333;51.306;17.056;2024-01-30T05:14:55;2.34;71.57
69225;DHT22;56333;51.306;17.056;2024-01-30T05:16:20;2.32;71.72
69225;DHT22;56333;51.306;17.056;2024-01-30T05:17:43;2.32;71.70
69225;DHT22;56333;51.306;17.056;2024-01-30T05:19:07;2.29;71.85
69225;DHT22;56333;51.306;17.056;2024-01-30T05:20:32;2.28;71.95
69225;DHT22;56333;51.306;17.056;2024-01-30T05:21:56;2.25;72.05
69225;DHT22;56333;51.306;17.056;2024-01-30T05:23:20;2.29;71.82
69225;DHT22;56333;51.306;17.056;2024-01-30T05:24:44;2.30;71.70
69225;DHT22;56333;51.306;17.056;2024-01-30T05:26:08;2.28;71.82
69225;DHT22;56333;51.306;17.056;2024-01-30T05:27:32;2.25;71.82
69225;DHT22;56333;51.306;17.056;2024-01-30T05:28:57;2.23;71.82
69225;DHT22;56333;51.306;17.056;2024-01-30T05:30:20;2.21;71.90
69225;DHT22;56333;51.306;17.056;2024-01-30T05:31:45;2.21;72.00
69225;DHT22;56333;51.306;17.056;2024-01-30T05:33:09;2.17;72.07
69225;DHT22;56333;51.306;17.056;2024-01-30T05:34:35;2.15;72.28
69225;DHT22;56333;51.306;17.056;2024-01-30T05:35:59;2.13;72.35
69225;DHT22;56333;51.306;17.056;2024-01-30T05:37:23;2.10;72.47
69225;DHT22;56333;51.306;17.056;2024-01-30T05:38:47;2.11;72.57
69225;DHT22;56333;51.306;17.056;2024-01-30T05:40:13;2.13;72.30
69225;DHT22;56333;51.306;17.056;2024-01-30T05:41:38;2.14;72.28
69225;DHT22;56333;51.306;17.056;2024-01-30T05:43:02;2.11;72.25
69225;DHT22;56333;51.306;17.056;2024-01-30T05:44:26;2.10;72.13
69225;DHT22;56333;51.306;17.056;2024-01-30T05:45:50;2.11;72.45
69225;DHT22;56333;51.306;17.056;2024-01-30T05:47:14;2.12;72.10
69225;DHT22;56333;51.306;17.056;2024-01-30T05:48:38;2.13;72.28
69225;DHT22;56333;51.306;17.056;2024-01-30T05:50:03;2.09;72.38
69225;DHT22;56333;51.306;17.056;2024-01-30T05:51:30;2.10;72.05
69225;DHT22;56333;51.306;17.056;2024-01-30T05:52:54;2.18;72.00
69225;DHT22;56333;51.306;17.056;2024-01-30T05:54:18;2.18;72.05
69225;DHT22;56333;51.306;17.056;2024-01-30T05:55:42;2.22;71.93
69225;DHT22;56333;51.306;17.056;2024-01-30T05:57:06;2.23;71.80
69225;DHT22;56333;51.306;17.056;2024-01-30T05:58:30;2.26;71.75
69225;DHT22;56333;51.306;17.056;2024-01-30T05:59:55;2.25;71.80
69225;DHT22;56333;51.306;17.056;2024-01-30T06:01:19;2.25;71.85
69225;DHT22;56333;51.306;17.056;2024-01-30T06:02:43;2.21;72.18
69225;DHT22;56333;51.306;17.056;2024-01-30T06:04:08;2.16;72.30
69225;DHT22;56333;51.306;17.056;2024-01-30T06:05:32;2.15;72.30
69225;DHT22;56333;51.306;17.056;2024-01-30T06:06:56;2.13;72.32
69225;DHT22;56333;51.306;17.056;2024-01-30T06:08:23;2.15;72.20
69225;DHT22;56333;51.306;17.056;2024-01-30T06:09:47;2.18;72.07
69225;DHT22;56333;51.306;17.056;2024-01-30T06:11:11;2.13;72.13
69225;DHT22;56333;51.306;17.056;2024-01-30T06:12:36;2.11;72.30
69225;DHT22;56333;51.306;17.056;2024-01-30T06:14:00;2.08;72.32
69225;DHT22;56333;51.306;17.056;2024-01-30T06:15:24;2.12;72.25
69225;DHT22;56333;51.306;17.056;2024-01-30T06:16:49;2.13;72.20
69225;DHT22;56333;51.306;17.056;2024-01-30T06:18:13;2.13;72.18
69225;DHT22;56333;51.306;17.056;2024-01-30T06:19:37;2.12;72.18
69225;DHT22;56333;51.306;17.056;2024-01-30T06:21:01;2.12;72.15
69225;DHT22;56333;51.306;17.056;2024-01-30T06:22:27;2.09;72.28
69225;DHT22;56333;51.306;17.056;2024-01-30T06:23:51;2.07;72.30
69225;DHT22;56333;51.306;17.056;2024-01-30T06:25:16;2.05;72.35
69225;DHT22;56333;51.306;17.056;2024-01-30T06:26:40;2.10;72.30
69225;DHT22;56333;51.306;17.056;2024-01-30T06:28:05;2.08;72.35
69225;DHT22;56333;51.306;17.056;2024-01-30T06:29:29;2.07;72.38
69225;DHT22;56333;51.306;17.056;2024-01-30T06:30:54;2.13;72.05
69225;DHT22;56333;51.306;17.056;2024-01-30T06:32:18;2.19;71.80
69225;DHT22;56333;51.306;17.056;2024-01-30T06:33:42;2.22;71.68
69225;DHT22;56333;51.306;17.056;2024-01-30T06:35:08;2.20;71.78
69225;DHT22;56333;51.306;17.056;2024-01-30T06:36:32;2.26;71.65
69225;DHT22;56333;51.306;17.056;2024-01-30T06:37:56;2.32;71.43
69225;DHT22;56333;51.306;17.056;2024-01-30T06:39:20;2.36;71.40
69225;DHT22;56333;51.306;17.056;2024-01-30T06:40:45;2.40;71.30
69225;DHT22;56333;51.306;17.056;2024-01-30T06:42:09;2.44;71.10
69225;DHT22;56333;51.306;17.056;2024-01-30T06:43:33;2.47;70.97
69225;DHT22;56333;51.306;17.056;2024-01-30T06:44:58;2.48;71.05
69225;DHT22;56333;51.306;17.056;2024-01-30T06:46:22;2.53;70.90
69225;DHT22;56333;51.306;17.056;2024-01-30T06:47:46;2.55;70.70
69225;DHT22;56333;51.306;17.056;2024-01-30T06:49:10;2.60;70.82
69225;DHT22;56333;51.306;17.056;2024-01-30T06:50:34;2.62;70.75
69225;DHT22;56333;51.306;17.056;2024-01-30T06:51:58;2.63;70.80
69225;DHT22;56333;51.306;17.056;2024-01-30T06:53:22;2.63;70.88
69225;DHT22;56333;51.306;17.056;2024-01-30T06:54:48;2.61;71.10
69225;DHT22;56333;51.306;17.056;2024-01-30T06:56:12;2.65;71.07
69225;DHT22;56333;51.306;17.056;2024-01-30T06:57:36;2.67;71.00
69225;DHT22;56333;51.306;17.056;2024-01-30T06:59:00;2.64;71.20
69225;DHT22;56333;51.306;17.056;2024-01-30T07:00:24;2.67;71.03
69225;DHT22;56333;51.306;17.056;2024-01-30T07:01:49;2.65;71.07
69225;DHT22;56333;51.306;17.056;2024-01-30T07:03:13;2.69;71.10
69225;DHT22;56333;51.306;17.056;2024-01-30T07:04:37;2.71;70.93
69225;DHT22;56333;51.306;17.056;2024-01-30T07:06:03;2.75;70.82
69225;DHT22;56333;51.306;17.056;2024-01-30T07:07:27;2.74;70.88
69225;DHT22;56333;51.306;17.056;2024-01-30T07:08:51;2.74;70.85
69225;DHT22;56333;51.306;17.056;2024-01-30T07:10:16;2.77;70.82
69225;DHT22;56333;51.306;17.056;2024-01-30T07:11:40;2.77;70.80
69225;DHT22;56333;51.306;17.056;2024-01-30T07:13:05;2.83;70.60
69225;DHT22;56333;51.306;17.056;2024-01-30T07:14:30;2.83;70.63
69225;DHT22;56333;51.306;17.056;2024-01-30T07:15:54;2.84;70.68
69225;DHT22;56333;51.306;17.056;2024-01-30T07:17:18;2.83;70.72
69225;DHT22;56333;51.306;17.056;2024-01-30T07:18:43;2.88;70.75
69225;DHT22;56333;51.306;17.056;2024-01-30T07:20:10;2.87;70.80
69225;DHT22;56333;51.306;17.056;2024-01-30T07:21:35;2.87;70.78
69225;DHT22;56333;51.306;17.056;2024-01-30T07:22:59;2.88;70.70
69225;DHT22;56333;51.306;17.056;2024-01-30T07:24:23;2.93;70.60
69225;DHT22;56333;51.306;17.056;2024-01-30T07:25:46;2.95;70.40
69225;DHT22;56333;51.306;17.056;2024-01-30T07:27:11;2.98;70.30
69225;DHT22;56333;51.306;17.056;2024-01-30T07:28:35;3.02;70.20
69225;DHT22;56333;51.306;17.056;2024-01-30T07:29:59;3.03;70.18
69225;DHT22;56333;51.306;17.056;2024-01-30T07:31:23;3.00;70.18
69225;DHT22;56333;51.306;17.056;2024-01-30T07:32:47;3.02;70.20
69225;DHT22;56333;51.306;17.056;2024-01-30T07:34:12;3.06;70.20
69225;DHT22;56333;51.306;17.056;2024-01-30T07:35:36;3.08;70.22
69225;DHT22;56333;51.306;17.056;2024-01-30T07:37:00;3.12;70.10
69225;DHT22;56333;51.306;17.056;2024-01-30T07:38:24;3.17;69.93
69225;DHT22;56333;51.306;17.056;2024-01-30T07:39:48;3.21;69.82
69225;DHT22;56333;51.306;17.056;2024-01-30T07:41:12;3.23;69.80
69225;DHT22;56333;51.306;17.056;2024-01-30T07:42:37;3.27;69.63
69225;DHT22;56333;51.306;17.056;2024-01-30T07:44:02;3.30;69.47
69225;DHT22;56333;51.306;17.056;2024-01-30T07:45:27;3.33;69.43
69225;DHT22;56333;51.306;17.056;2024-01-30T07:46:54;3.35;69.28
69225;DHT22;56333;51.306;17.056;2024-01-30T07:48:18;3.35;69.32
69225;DHT22;56333;51.306;17.056;2024-01-30T07:49:43;3.34;69.32
69225;DHT22;56333;51.306;17.056;2024-01-30T07:51:07;3.38;69.30
69225;DHT22;56333;51.306;17.056;2024-01-30T07:52:31;3.42;69.18
69225;DHT22;56333;51.306;17.056;2024-01-30T07:53:55;3.46;69.25
69225;DHT22;56333;51.306;17.056;2024-01-30T07:55:19;3.50;69.20
69225;DHT22;56333;51.306;17.056;2024-01-30T07:56:46;3.56;69.05
69225;DHT22;56333;51.306;17.056;2024-01-30T07:58:10;3.59;68.78
69225;DHT22;56333;51.306;17.056;2024-01-30T07:59:34;3.62;68.80
69225;DHT22;56333;51.306;17.056;2024-01-30T08:00:58;3.64;68.70
69225;DHT22;56333;51.306;17.056;2024-01-30T08:02:23;3.66;68.50
69225;DHT22;56333;51.306;17.056;2024-01-30T08:03:48;3.69;68.38
69225;DHT22;56333;51.306;17.056;2024-01-30T08:05:12;3.72;68.13
69225;DHT22;56333;51.306;17.056;2024-01-30T08:06:37;3.74;68.03
69225;DHT22;56333;51.306;17.056;2024-01-30T08:08:02;3.77;67.70
69225;DHT22;56333;51.306;17.056;2024-01-30T08:09:27;3.78;67.80
69225;DHT22;56333;51.306;17.056;2024-01-30T08:10:51;3.82;67.63
69225;DHT22;56333;51.306;17.056;2024-01-30T08:12:15;3.87;67.50
69225;DHT22;56333;51.306;17.056;2024-01-30T08:13:40;3.90;67.30
69225;DHT22;56333;51.306;17.056;2024-01-30T08:15:05;3.93;67.05
69225;DHT22;56333;51.306;17.056;2024-01-30T08:16:31;3.95;66.88
69225;DHT22;56333;51.306;17.056;2024-01-30T08:17:55;3.99;66.85
69225;DHT22;56333;51.306;17.056;2024-01-30T08:19:20;4.00;67.00
69225;DHT22;56333;51.306;17.056;2024-01-30T08:20:44;4.01;66.85
69225;DHT22;56333;51.306;17.056;2024-01-30T08:22:08;4.06;66.80
69225;DHT22;56333;51.306;17.056;2024-01-30T08:23:35;4.07;66.63
69225;DHT22;56333;51.306;17.056;2024-01-30T08:25:01;4.09;66.72
69225;DHT22;56333;51.306;17.056;2024-01-30T08:26:26;4.11;66.70
69225;DHT22;56333;51.306;17.056;2024-01-30T08:27:50;4.15;66.70
69225;DHT22;56333;51.306;17.056;2024-01-30T08:29:14;4.19;66.65
69225;DHT22;56333;51.306;17.056;2024-01-30T08:30:39;4.20;66.50
69225;DHT22;56333;51.306;17.056;2024-01-30T08:32:04;4.24;66.32
69225;DHT22;56333;51.306;17.056;2024-01-30T08:33:32;4.28;66.18
69225;DHT22;56333;51.306;17.056;2024-01-30T08:34:56;4.32;66.25
69225;DHT22;56333;51.306;17.056;2024-01-30T08:36:21;4.32;66.20
69225;DHT22;56333;51.306;17.056;2024-01-30T08:37:45;4.34;66.13
69225;DHT22;56333;51.306;17.056;2024-01-30T08:39:09;4.36;65.88
69225;DHT22;56333;51.306;17.056;2024-01-30T08:40:33;4.38;66.10
69225;DHT22;56333;51.306;17.056;2024-01-30T08:41:57;4.41;66.03
69225;DHT22;56333;51.306;17.056;2024-01-30T08:43:22;4.46;65.82
69225;DHT22;56333;51.306;17.056;2024-01-30T08:44:46;4.46;65.80
69225;DHT22;56333;51.306;17.056;2024-01-30T08:46:10;4.49;65.80
69225;DHT22;56333;51.306;17.056;2024-01-30T08:47:35;4.53;65.72
69225;DHT22;56333;51.306;17.056;2024-01-30T08:48:59;4.57;65.85
69225;DHT22;56333;51.306;17.056;2024-01-30T08:50:22;4.60;66.00
69225;DHT22;56333;51.306;17.056;2024-01-30T08:51:46;4.66;65.72
69225;DHT22;56333;51.306;17.056;2024-01-30T08:53:11;4.68;65.75
69225;DHT22;56333;51.306;17.056;2024-01-30T08:54:35;4.72;65.70